West Atherton, Indiana
Current Conditions -  °F | °C
As of 9:53 PM on Tuesday 21 Oct 2014 (Local Time) from KHUF Reporting Station
Clear Clear  
Wind Chill: 45°   Ceiling: Unl
Heat Index: 49°   Visibility: 10mi
Dew Point: 43°   Wind: 8mph
Humidity: 80%   Direction: 360°N
Pressure: 30.2"   Gusts: NA
Location:  39.6386°N, 87.3045°W
Report Text: KHUF 220153Z 36007KT 10SM CLR 09/06 A3020 RMK AO2 SLP228 T00940061 $
Loading
Personal Weather Stations






























Interactive Weather Map
Tropical Storm Tracking
New forecast layout! Learn more

10-Day Weather Forecast

Advertisements
Track Severe Weather on mobile